Time;durP1;ratioP1;P1;durP2;ratioP2;P2;SDS_P1;SDS_P2;PMS_P1;PMS_P2;Temp;Humidity;BMP_temperature;BMP_pressure;BME280_temperature;BME280_humidity;BME280_pressure;Samples;Min_cycle;Max_cycle;Signal;HPM_P1;HPM_P2
2022/08/08 00:01:22;;;;;;;;;;;21.30;61.10;;;;;;5031846;28;20003;-53
2022/08/08 00:03:55;;;;;;;;;;;21.30;61.30;;;;;;5032116;28;19955;-56
2022/08/08 00:06:27;;;;;;;;;;;21.20;61.50;;;;;;5032122;28;19913;-52
2022/08/08 00:08:55;;;;;;;;;;;21.10;61.90;;;;;;5036883;28;20024;-56
2022/08/08 00:11:31;;;;;;;;;;;21.10;62.70;;;;;;5031745;28;19913;-55
2022/08/08 00:14:00;;;;;;;;;;;21.20;64.00;;;;;;5031830;28;19909;-57
2022/08/08 00:16:28;;;;;;;;;;;21.20;64.50;;;;;;5031362;28;20022;-54
2022/08/08 00:18:53;;;;;;;;;;;21.20;64.90;;;;;;5031801;28;19909;-53
2022/08/08 00:21:23;;;;;;;;;;;21.10;65.40;;;;;;5033308;28;20293;-57
2022/08/08 00:23:55;;;;;;;;;;;21.00;65.90;;;;;;5035234;28;19909;-56
2022/08/08 00:26:33;;;;;;;;;;;20.80;66.20;;;;;;5035810;28;20392;-56
2022/08/08 00:29:13;;;;;;;;;;;20.70;66.80;;;;;;5035379;28;19917;-57
2022/08/08 00:31:41;;;;;;;;;;;20.40;67.00;;;;;;5035384;28;19913;-57
2022/08/08 00:37:05;;;;;;;;;;;20.30;66.60;;;;;;5035301;28;20292;-54
2022/08/08 00:39:37;;;;;;;;;;;20.00;66.50;;;;;;5035510;28;19909;-55
2022/08/08 00:42:22;;;;;;;;;;;19.90;67.20;;;;;;5035396;28;19909;-56
2022/08/08 00:44:56;;;;;;;;;;;19.80;67.90;;;;;;5046555;28;19908;-55
2022/08/08 00:47:34;;;;;;;;;;;19.90;67.80;;;;;;5055385;28;19962;-56
2022/08/08 00:50:09;;;;;;;;;;;19.80;67.80;;;;;;5055120;28;19913;-56
2022/08/08 00:52:34;;;;;;;;;;;19.80;68.10;;;;;;5054952;28;19924;-56
2022/08/08 00:55:08;;;;;;;;;;;19.70;67.60;;;;;;5055120;28;19909;-53
2022/08/08 00:57:40;;;;;;;;;;;19.60;67.30;;;;;;5054632;28;19909;-55
2022/08/08 01:00:07;;;;;;;;;;;19.40;67.90;;;;;;5055456;28;19955;-55
2022/08/08 01:02:49;;;;;;;;;;;19.30;68.60;;;;;;5055513;28;20011;-53
2022/08/08 01:05:22;;;;;;;;;;;19.10;69.40;;;;;;5054000;28;20416;-55
2022/08/08 01:07:48;;;;;;;;;;;19.10;70.30;;;;;;5055133;28;20023;-55
2022/08/08 01:10:31;;;;;;;;;;;19.00;70.20;;;;;;5042782;28;19956;-57
2022/08/08 01:13:06;;;;;;;;;;;19.00;70.20;;;;;;5035124;28;19909;-57
2022/08/08 01:15:45;;;;;;;;;;;18.90;70.80;;;;;;5034846;28;19913;-54
2022/08/08 01:18:22;;;;;;;;;;;18.90;71.10;;;;;;5034480;28;19932;-55
2022/08/08 01:20:56;;;;;;;;;;;18.90;71.30;;;;;;5034663;28;20373;-57
2022/08/08 01:23:41;;;;;;;;;;;18.90;71.10;;;;;;5034762;28;20392;-52
2022/08/08 01:26:14;;;;;;;;;;;18.80;71.20;;;;;;5034712;28;19943;-56
2022/08/08 01:28:48;;;;;;;;;;;18.80;71.40;;;;;;5034368;28;19926;-54
2022/08/08 01:31:17;;;;;;;;;;;18.70;71.50;;;;;;5034283;28;19975;-54
2022/08/08 01:33:48;;;;;;;;;;;18.80;71.10;;;;;;5034338;28;20249;-53
2022/08/08 01:36:32;;;;;;;;;;;18.80;70.90;;;;;;5034755;28;20002;-57
2022/08/08 01:39:06;;;;;;;;;;;18.60;71.00;;;;;;5034211;28;19909;-54
2022/08/08 01:41:32;;;;;;;;;;;18.60;71.60;;;;;;5034423;28;20277;-57
2022/08/08 01:44:04;;;;;;;;;;;18.70;71.90;;;;;;5040516;28;19909;-56
2022/08/08 01:46:38;;;;;;;;;;;18.80;72.30;;;;;;5054287;28;19917;-57
2022/08/08 01:49:07;;;;;;;;;;;18.90;72.50;;;;;;5054784;28;19921;-56
2022/08/08 01:51:44;;;;;;;;;;;19.00;72.50;;;;;;5054386;28;19909;-53
2022/08/08 01:54:29;;;;;;;;;;;19.00;72.10;;;;;;5054223;28;20385;-55
2022/08/08 01:56:57;;;;;;;;;;;18.90;71.70;;;;;;5054192;28;19962;-55
2022/08/08 01:59:46;;;;;;;;;;;18.90;71.80;;;;;;5054735;28;19988;-55
2022/08/08 02:02:16;;;;;;;;;;;18.80;72.00;;;;;;5054152;28;20368;-55
2022/08/08 02:04:56;;;;;;;;;;;18.70;72.90;;;;;;5053925;28;19916;-55
2022/08/08 02:07:25;;;;;;;;;;;18.70;72.90;;;;;;5054340;28;19915;-56
2022/08/08 02:09:50;;;;;;;;;;;18.60;72.90;;;;;;5044471;28;19957;-57
2022/08/08 02:12:26;;;;;;;;;;;18.60;72.40;;;;;;5033750;28;19916;-57
2022/08/08 02:15:11;;;;;;;;;;;18.60;72.00;;;;;;5034575;28;19949;-57
2022/08/08 02:17:42;;;;;;;;;;;18.50;71.90;;;;;;5034450;28;19952;-58
2022/08/08 02:20:23;;;;;;;;;;;18.50;71.50;;;;;;5034505;28;19916;-55
2022/08/08 02:23:08;;;;;;;;;;;18.40;71.60;;;;;;5033834;28;20053;-55
2022/08/08 02:25:43;;;;;;;;;;;18.30;72.40;;;;;;5033649;28;20009;-55
2022/08/08 02:28:18;;;;;;;;;;;18.20;72.80;;;;;;5032946;28;19924;-57
2022/08/08 02:30:52;;;;;;;;;;;18.20;73.10;;;;;;5033484;28;19909;-56
2022/08/08 02:33:36;;;;;;;;;;;18.20;72.90;;;;;;5033934;28;19967;-58
2022/08/08 02:36:10;;;;;;;;;;;18.30;72.90;;;;;;5033503;28;19985;-57
2022/08/08 02:38:54;;;;;;;;;;;18.40;73.20;;;;;;5033369;28;19909;-57
2022/08/08 02:41:38;;;;;;;;;;;18.60;73.40;;;;;;5033949;28;20354;-55
2022/08/08 02:44:04;;;;;;;;;;;18.70;73.60;;;;;;5040194;28;19917;-57
2022/08/08 02:46:41;;;;;;;;;;;18.70;73.60;;;;;;5053392;28;19908;-57
2022/08/08 02:49:10;;;;;;;;;;;18.70;74.20;;;;;;5052913;28;20347;-57
2022/08/08 02:52:01;;;;;;;;;;;18.70;74.70;;;;;;5051871;28;19913;-54
2022/08/08 02:54:40;;;;;;;;;;;18.70;75.70;;;;;;5051774;28;19962;-54
2022/08/08 02:57:41;;;;;;;;;;;18.60;75.40;;;;;;5052465;28;19909;-57
2022/08/08 03:00:16;;;;;;;;;;;18.60;75.10;;;;;;5049855;28;20367;-56
2022/08/08 03:03:00;;;;;;;;;;;18.50;75.50;;;;;;5052203;28;19915;-56
2022/08/08 03:05:44;;;;;;;;;;;18.50;76.60;;;;;;5052753;28;20400;-57
2022/08/08 03:08:18;;;;;;;;;;;18.40;77.00;;;;;;5052470;28;20357;-56
2022/08/08 03:11:03;;;;;;;;;;;18.30;76.90;;;;;;5036136;28;20000;-56
2022/08/08 03:13:40;;;;;;;;;;;18.20;76.80;;;;;;5033508;28;19913;-55
2022/08/08 03:16:06;;;;;;;;;;;18.20;76.60;;;;;;5032492;28;19916;-55
2022/08/08 03:18:52;;;;;;;;;;;18.10;75.40;;;;;;5032639;28;19909;-57
2022/08/08 03:21:17;;;;;;;;;;;18.00;75.10;;;;;;5032268;28;19910;-55
2022/08/08 03:23:42;;;;;;;;;;;18.00;75.20;;;;;;5032896;28;19909;-55
2022/08/08 03:26:08;;;;;;;;;;;18.10;75.50;;;;;;5033006;28;19913;-56
2022/08/08 03:28:37;;;;;;;;;;;18.10;76.00;;;;;;5032654;28;19913;-53
2022/08/08 03:33:17;;;;;;;;;;;18.10;76.70;;;;;;5032228;28;19916;-55
2022/08/08 03:33:48;;;;;;;;;;;18.00;76.20;;;;;;5032582;28;20016;-55
2022/08/08 03:36:14;;;;;;;;;;;17.90;76.70;;;;;;5032500;28;20368;-54
2022/08/08 03:38:39;;;;;;;;;;;17.90;76.30;;;;;;5032368;28;19917;-57
2022/08/08 03:41:05;;;;;;;;;;;17.70;75.80;;;;;;5032575;28;19920;-57
2022/08/08 03:43:30;;;;;;;;;;;17.60;77.00;;;;;;5034689;28;19963;-56
2022/08/08 03:45:56;;;;;;;;;;;17.50;76.80;;;;;;5051997;28;20287;-55
2022/08/08 03:48:21;;;;;;;;;;;17.50;77.70;;;;;;5052120;28;20372;-56
2022/08/08 03:50:48;;;;;;;;;;;17.40;77.20;;;;;;5053029;28;20384;-53
2022/08/08 03:53:17;;;;;;;;;;;17.40;77.40;;;;;;5052316;28;19966;-57
2022/08/08 03:55:45;;;;;;;;;;;17.30;77.70;;;;;;5051256;28;20379;-56
2022/08/08 03:58:16;;;;;;;;;;;17.30;77.40;;;;;;5051425;28;19908;-55
2022/08/08 04:00:47;;;;;;;;;;;17.20;77.50;;;;;;5051779;28;19932;-55
2022/08/08 04:03:13;;;;;;;;;;;17.10;77.60;;;;;;5051759;28;20380;-54
2022/08/08 04:05:38;;;;;;;;;;;17.10;78.20;;;;;;5051457;28;19990;-55
2022/08/08 04:08:05;;;;;;;;;;;17.10;78.30;;;;;;5051676;28;20077;-55
2022/08/08 04:10:32;;;;;;;;;;;17.20;78.30;;;;;;5036819;28;20381;-53
2022/08/08 04:12:57;;;;;;;;;;;17.00;78.50;;;;;;5031381;28;20076;-57
2022/08/08 04:15:23;;;;;;;;;;;17.10;78.70;;;;;;5031413;28;20395;-56
2022/08/08 04:17:49;;;;;;;;;;;17.20;78.30;;;;;;5031056;28;19917;-56
2022/08/08 04:20:15;;;;;;;;;;;17.20;78.50;;;;;;5031226;28;19928;-55
2022/08/08 04:22:40;;;;;;;;;;;17.20;77.40;;;;;;5031265;28;19921;-57
2022/08/08 04:25:06;;;;;;;;;;;17.20;77.60;;;;;;5031294;28;19936;-55
2022/08/08 04:27:32;;;;;;;;;;;17.20;77.80;;;;;;5031360;28;19916;-54
2022/08/08 04:29:58;;;;;;;;;;;17.30;77.90;;;;;;5031086;28;19917;-57
2022/08/08 04:32:23;;;;;;;;;;;17.30;78.00;;;;;;5031267;28;20016;-52
2022/08/08 04:34:49;;;;;;;;;;;17.30;78.50;;;;;;5031512;28;19917;-57
2022/08/08 04:37:14;;;;;;;;;;;17.30;78.00;;;;;;5031831;28;20016;-55
2022/08/08 04:39:40;;;;;;;;;;;17.30;78.00;;;;;;5031309;28;19917;-54
2022/08/08 04:42:06;;;;;;;;;;;17.30;77.90;;;;;;5031281;28;19920;-57
2022/08/08 04:44:32;;;;;;;;;;;17.50;77.80;;;;;;5041750;28;20398;-54
2022/08/08 04:46:57;;;;;;;;;;;17.40;77.40;;;;;;5050903;28;19976;-55
2022/08/08 04:49:23;;;;;;;;;;;17.40;77.50;;;;;;5051123;28;19916;-57
2022/08/08 04:51:48;;;;;;;;;;;17.40;77.50;;;;;;5051212;28;20077;-56
2022/08/08 04:54:14;;;;;;;;;;;17.30;77.40;;;;;;5049877;28;19920;-55
2022/08/08 04:56:39;;;;;;;;;;;17.30;77.40;;;;;;5051212;28;19913;-53
2022/08/08 04:59:08;;;;;;;;;;;17.30;77.80;;;;;;5051263;28;19920;-57
2022/08/08 05:01:34;;;;;;;;;;;17.30;77.60;;;;;;5051391;28;19913;-56
2022/08/08 05:03:59;;;;;;;;;;;17.40;76.70;;;;;;5049970;28;20395;-54
2022/08/08 05:06:25;;;;;;;;;;;17.40;76.50;;;;;;5052427;28;20015;-56
2022/08/08 05:08:50;;;;;;;;;;;17.50;76.70;;;;;;5054185;28;19917;-56
2022/08/08 05:11:16;;;;;;;;;;;17.50;77.10;;;;;;5034650;28;19920;-55
2022/08/08 05:13:42;;;;;;;;;;;17.50;76.60;;;;;;5035554;28;20148;-57
2022/08/08 05:16:08;;;;;;;;;;;17.60;76.10;;;;;;5035235;28;20304;-56
2022/08/08 05:18:35;;;;;;;;;;;17.60;76.10;;;;;;5035009;28;20013;-57
2022/08/08 05:21:05;;;;;;;;;;;17.70;76.50;;;;;;5035376;28;19961;-54
2022/08/08 05:23:30;;;;;;;;;;;17.70;76.10;;;;;;5034531;28;19925;-57
2022/08/08 05:25:56;;;;;;;;;;;17.70;75.80;;;;;;5035385;28;19909;-54
2022/08/08 05:28:22;;;;;;;;;;;17.70;75.90;;;;;;5034533;28;19913;-57
2022/08/08 05:30:48;;;;;;;;;;;17.50;75.40;;;;;;5035061;28;20293;-53
2022/08/08 05:33:13;;;;;;;;;;;17.30;76.50;;;;;;5034914;28;20296;-54
2022/08/08 05:35:41;;;;;;;;;;;17.20;77.00;;;;;;5034067;28;20028;-55
2022/08/08 05:38:06;;;;;;;;;;;17.30;77.20;;;;;;5035537;28;19913;-57
2022/08/08 05:40:33;;;;;;;;;;;17.40;77.00;;;;;;5034632;28;19909;-56
2022/08/08 05:43:09;;;;;;;;;;;17.50;76.60;;;;;;5034621;28;19909;-53
2022/08/08 05:45:35;;;;;;;;;;;17.60;76.60;;;;;;5053897;28;19909;-57
2022/08/08 05:48:02;;;;;;;;;;;17.60;76.50;;;;;;5054371;28;20019;-55
2022/08/08 05:50:28;;;;;;;;;;;17.70;76.30;;;;;;5054696;28;19963;-54
2022/08/08 05:52:54;;;;;;;;;;;17.80;76.10;;;;;;5054511;28;19943;-56
2022/08/08 05:55:20;;;;;;;;;;;17.70;76.20;;;;;;5055117;28;19920;-57
2022/08/08 05:57:49;;;;;;;;;;;17.80;76.10;;;;;;5054689;28;19909;-50
2022/08/08 06:00:15;;;;;;;;;;;17.90;75.90;;;;;;5054373;28;20390;-54
2022/08/08 06:05:31;;;;;;;;;;;18.20;75.30;;;;;;5054782;28;19908;-58
2022/08/08 06:07:57;;;;;;;;;;;18.20;74.90;;;;;;5052891;28;19982;-55
2022/08/08 06:10:23;;;;;;;;;;;18.30;74.90;;;;;;5040171;28;20352;-58
2022/08/08 06:12:49;;;;;;;;;;;18.30;74.70;;;;;;5034003;28;19909;-57
2022/08/08 06:15:15;;;;;;;;;;;18.40;74.40;;;;;;5033709;28;19928;-57
2022/08/08 06:17:41;;;;;;;;;;;18.60;74.20;;;;;;5032767;28;20015;-55
2022/08/08 06:20:08;;;;;;;;;;;18.70;74.00;;;;;;5033881;28;19909;-56
2022/08/08 06:22:33;;;;;;;;;;;18.80;74.20;;;;;;5034099;28;19924;-54
2022/08/08 06:24:59;;;;;;;;;;;18.90;74.30;;;;;;5033658;28;19913;-52
2022/08/08 06:27:36;;;;;;;;;;;18.90;72.40;;;;;;5033507;28;20031;-55
2022/08/08 06:30:06;;;;;;;;;;;18.90;72.70;;;;;;5033487;28;19920;-55
2022/08/08 06:32:34;;;;;;;;;;;19.00;72.80;;;;;;5033655;28;19909;-56
2022/08/08 06:35:03;;;;;;;;;;;19.10;72.70;;;;;;5033628;28;19948;-55
2022/08/08 06:37:31;;;;;;;;;;;19.20;72.70;;;;;;5034165;28;19913;-57
2022/08/08 06:40:01;;;;;;;;;;;19.50;72.50;;;;;;5033167;28;19936;-54
2022/08/08 06:42:28;;;;;;;;;;;19.60;72.00;;;;;;5033147;28;20142;-57
2022/08/08 06:44:54;;;;;;;;;;;19.70;71.40;;;;;;5046649;28;19919;-58
2022/08/08 06:47:19;;;;;;;;;;;19.80;71.30;;;;;;5052604;28;20360;-56
2022/08/08 06:49:46;;;;;;;;;;;19.80;71.10;;;;;;5052573;28;20369;-56
2022/08/08 06:52:11;;;;;;;;;;;19.90;71.00;;;;;;5051308;28;19986;-57
2022/08/08 06:54:37;;;;;;;;;;;20.10;70.70;;;;;;5052878;28;20344;-52
2022/08/08 06:57:03;;;;;;;;;;;20.20;70.60;;;;;;5052631;28;19916;-58
2022/08/08 06:59:29;;;;;;;;;;;20.30;70.30;;;;;;5052526;28;19932;-57
2022/08/08 07:02:04;;;;;;;;;;;20.40;70.00;;;;;;5052598;28;19920;-57
2022/08/08 07:04:38;;;;;;;;;;;20.40;70.10;;;;;;5052613;28;20389;-55
2022/08/08 07:07:07;;;;;;;;;;;20.50;70.00;;;;;;5052215;28;19920;-55
2022/08/08 07:09:38;;;;;;;;;;;20.50;69.50;;;;;;5045553;28;20386;-57
2022/08/08 07:12:07;;;;;;;;;;;20.60;69.70;;;;;;5032539;28;19909;-58
2022/08/08 07:14:38;;;;;;;;;;;20.60;69.60;;;;;;5032535;28;19913;-57
2022/08/08 07:17:07;;;;;;;;;;;20.60;69.10;;;;;;5032265;28;20397;-56
2022/08/08 07:19:40;;;;;;;;;;;20.60;69.10;;;;;;5032607;28;20004;-57
2022/08/08 07:22:06;;;;;;;;;;;20.70;69.00;;;;;;5032511;28;20281;-58
2022/08/08 07:24:57;;;;;;;;;;;20.80;68.60;;;;;;5032018;28;19909;-57
2022/08/08 07:27:23;;;;;;;;;;;20.90;68.50;;;;;;5032234;28;19913;-55
2022/08/08 07:29:50;;;;;;;;;;;21.00;68.20;;;;;;5032111;28;19913;-57
2022/08/08 07:32:16;;;;;;;;;;;21.00;68.40;;;;;;5032337;28;19909;-58
2022/08/08 07:34:42;;;;;;;;;;;21.00;68.50;;;;;;5030967;28;19936;-57
2022/08/08 07:37:09;;;;;;;;;;;21.10;68.30;;;;;;5032089;28;19913;-55
2022/08/08 07:39:35;;;;;;;;;;;21.10;68.40;;;;;;5031166;28;19998;-56
2022/08/08 07:42:01;;;;;;;;;;;21.30;68.10;;;;;;5031915;28;19957;-57
2022/08/08 07:44:27;;;;;;;;;;;21.30;68.10;;;;;;5042106;28;20008;-57
2022/08/08 07:46:53;;;;;;;;;;;21.30;67.90;;;;;;5052277;28;20431;-56
2022/08/08 07:49:18;;;;;;;;;;;21.40;67.90;;;;;;5051733;28;20016;-56
2022/08/08 07:51:44;;;;;;;;;;;21.50;67.60;;;;;;5051628;28;19912;-56
2022/08/08 07:54:29;;;;;;;;;;;21.60;67.70;;;;;;5051776;28;19913;-53
2022/08/08 07:57:15;;;;;;;;;;;21.60;67.20;;;;;;5051471;28;19916;-56
2022/08/08 07:59:48;;;;;;;;;;;21.80;66.90;;;;;;5051754;28;20003;-55
2022/08/08 08:02:18;;;;;;;;;;;21.90;66.40;;;;;;5052234;28;19947;-56
2022/08/08 08:04:45;;;;;;;;;;;21.90;66.10;;;;;;5051825;28;19909;-56
2022/08/08 08:07:11;;;;;;;;;;;22.00;65.50;;;;;;5051535;28;20003;-58
2022/08/08 08:09:37;;;;;;;;;;;21.90;65.00;;;;;;5043765;28;20003;-58
2022/08/08 08:12:03;;;;;;;;;;;22.00;64.80;;;;;;5031697;28;19916;-57
2022/08/08 08:14:37;;;;;;;;;;;22.00;65.00;;;;;;5031935;28;20584;-58
2022/08/08 08:17:03;;;;;;;;;;;22.10;64.60;;;;;;5031353;28;19917;-58
2022/08/08 08:19:33;;;;;;;;;;;22.20;64.70;;;;;;5030603;28;19913;-57
2022/08/08 08:21:59;;;;;;;;;;;22.30;64.20;;;;;;5031574;28;20354;-56
2022/08/08 08:24:24;;;;;;;;;;;22.40;64.00;;;;;;5031628;28;19979;-58
2022/08/08 08:26:50;;;;;;;;;;;22.50;63.70;;;;;;5031243;28;19967;-57
2022/08/08 08:29:15;;;;;;;;;;;22.50;63.00;;;;;;5031136;28;19962;-59
2022/08/08 08:31:41;;;;;;;;;;;22.70;62.80;;;;;;5031763;28;19975;-57
2022/08/08 08:34:06;;;;;;;;;;;22.80;62.80;;;;;;5031818;28;20011;-56
2022/08/08 08:36:32;;;;;;;;;;;22.80;62.60;;;;;;5030595;28;20075;-58
2022/08/08 08:38:58;;;;;;;;;;;22.80;61.70;;;;;;5030113;28;19913;-60
2022/08/08 08:41:24;;;;;;;;;;;22.80;61.90;;;;;;5032580;28;19914;-56
2022/08/08 08:43:49;;;;;;;;;;;22.80;62.20;;;;;;5039845;28;20312;-55
2022/08/08 08:46:15;;;;;;;;;;;22.90;62.00;;;;;;5054798;28;19924;-57
2022/08/08 08:48:41;;;;;;;;;;;23.10;62.10;;;;;;5053608;28;20015;-58
2022/08/08 08:51:11;;;;;;;;;;;23.10;61.50;;;;;;5055498;28;19927;-58
2022/08/08 08:53:41;;;;;;;;;;;23.10;60.80;;;;;;5055284;28;19917;-57
2022/08/08 08:56:07;;;;;;;;;;;23.30;61.00;;;;;;5055316;28;20323;-57
2022/08/08 08:58:34;;;;;;;;;;;23.40;60.50;;;;;;5054863;28;19913;-57
2022/08/08 09:01:00;;;;;;;;;;;23.70;59.90;;;;;;5055033;28;20399;-58
2022/08/08 09:03:26;;;;;;;;;;;23.80;59.30;;;;;;5054964;28;19913;-58
2022/08/08 09:05:52;;;;;;;;;;;23.90;59.60;;;;;;5054973;28;19924;-55
2022/08/08 09:08:20;;;;;;;;;;;23.90;59.00;;;;;;5054767;28;19917;-56
2022/08/08 09:10:45;;;;;;;;;;;24.00;58.80;;;;;;5038177;28;19920;-58
2022/08/08 09:13:11;;;;;;;;;;;24.00;58.70;;;;;;5033509;28;19914;-58
2022/08/08 09:15:37;;;;;;;;;;;24.10;58.90;;;;;;5034776;28;19997;-57
2022/08/08 09:18:03;;;;;;;;;;;24.10;58.50;;;;;;5034901;28;20047;-56
2022/08/08 09:20:29;;;;;;;;;;;24.00;57.90;;;;;;5035291;28;19956;-56
2022/08/08 09:22:55;;;;;;;;;;;24.10;58.30;;;;;;5035088;28;19913;-55
2022/08/08 09:25:21;;;;;;;;;;;24.30;58.50;;;;;;5034377;28;19916;-58
2022/08/08 09:27:46;;;;;;;;;;;24.30;58.00;;;;;;5035079;28;20593;-57
2022/08/08 09:30:14;;;;;;;;;;;24.50;57.60;;;;;;5033946;28;19924;-55
2022/08/08 09:32:41;;;;;;;;;;;24.40;56.80;;;;;;5034946;28;19909;-54
2022/08/08 09:35:19;;;;;;;;;;;24.60;56.70;;;;;;5034937;28;19956;-55
2022/08/08 09:37:52;;;;;;;;;;;24.70;56.80;;;;;;5034834;28;19913;-56
2022/08/08 09:40:19;;;;;;;;;;;24.80;56.20;;;;;;5036020;28;20004;-53
2022/08/08 09:42:47;;;;;;;;;;;24.80;56.50;;;;;;5035198;28;20494;-55
2022/08/08 09:45:18;;;;;;;;;;;25.00;56.50;;;;;;5049944;28;19909;-57
2022/08/08 09:47:44;;;;;;;;;;;25.00;56.40;;;;;;5051897;28;19959;-55
2022/08/08 09:50:19;;;;;;;;;;;25.00;56.90;;;;;;5053752;28;19924;-55
2022/08/08 09:52:49;;;;;;;;;;;25.00;56.00;;;;;;5050746;28;19956;-54
2022/08/08 09:55:15;;;;;;;;;;;25.10;56.30;;;;;;5053623;28;19921;-52
2022/08/08 09:57:43;;;;;;;;;;;24.80;55.40;;;;;;5053652;28;19920;-54
2022/08/08 10:00:10;;;;;;;;;;;24.70;55.40;;;;;;5053919;28;19913;-54
2022/08/08 10:02:37;;;;;;;;;;;24.80;55.10;;;;;;5054096;28;19962;-56
2022/08/08 10:05:06;;;;;;;;;;;24.90;55.30;;;;;;5054357;28;19924;-57
2022/08/08 10:07:32;;;;;;;;;;;25.00;55.70;;;;;;5054017;28;20046;-58
2022/08/08 10:09:58;;;;;;;;;;;25.20;55.40;;;;;;5043280;28;20442;-58
2022/08/08 10:12:36;;;;;;;;;;;25.20;55.20;;;;;;5034371;28;19913;-58
2022/08/08 10:15:03;;;;;;;;;;;24.90;55.10;;;;;;5044618;28;19920;-56
2022/08/08 10:17:42;;;;;;;;;;;25.10;55.00;;;;;;5053444;28;20401;-57
2022/08/08 10:20:07;;;;;;;;;;;25.20;54.80;;;;;;5053137;28;19916;-56
2022/08/08 10:22:35;;;;;;;;;;;25.40;54.30;;;;;;5053843;28;19913;-53
2022/08/08 10:25:02;;;;;;;;;;;25.50;54.00;;;;;;5053670;28;19913;-57
2022/08/08 10:27:29;;;;;;;;;;;25.50;53.60;;;;;;5053165;28;19952;-59
2022/08/08 10:29:58;;;;;;;;;;;25.40;53.60;;;;;;5053528;28;20336;-58
2022/08/08 10:32:31;;;;;;;;;;;25.20;53.90;;;;;;5053678;28;19944;-54
2022/08/08 10:34:58;;;;;;;;;;;25.20;54.70;;;;;;5053834;28;20380;-55
2022/08/08 10:37:28;;;;;;;;;;;25.30;54.60;;;;;;5052958;28;19909;-57
2022/08/08 10:39:54;;;;;;;;;;;25.50;54.40;;;;;;5051414;28;20011;-56
2022/08/08 10:42:21;;;;;;;;;;;25.50;54.10;;;;;;5053345;28;19924;-56
2022/08/08 10:44:46;;;;;;;;;;;25.60;54.10;;;;;;5053000;28;19919;-57
2022/08/08 10:47:15;;;;;;;;;;;25.70;53.80;;;;;;5052727;28;20016;-57
2022/08/08 10:49:50;;;;;;;;;;;25.70;53.90;;;;;;5053015;28;19917;-55
2022/08/08 10:52:24;;;;;;;;;;;25.80;53.80;;;;;;5052967;28;19917;-58
2022/08/08 10:54:51;;;;;;;;;;;25.90;53.70;;;;;;5052902;28;19920;-57
2022/08/08 10:57:16;;;;;;;;;;;26.10;53.00;;;;;;5052031;28;19955;-55
2022/08/08 10:59:44;;;;;;;;;;;26.00;53.10;;;;;;5052792;28;19913;-54
2022/08/08 11:02:13;;;;;;;;;;;26.10;53.10;;;;;;5059751;28;19913;-57
2022/08/08 11:04:45;;;;;;;;;;;25.90;53.20;;;;;;5054580;28;19916;-56
2022/08/08 11:07:11;;;;;;;;;;;25.60;53.00;;;;;;5052684;28;19920;-57
2022/08/08 11:09:44;;;;;;;;;;;25.70;53.00;;;;;;5045081;28;20361;-53
2022/08/08 11:12:10;;;;;;;;;;;25.70;53.20;;;;;;5044741;28;19978;-55
2022/08/08 11:14:47;;;;;;;;;;;25.80;53.10;;;;;;5043284;28;19917;-53
2022/08/08 11:17:12;;;;;;;;;;;25.90;53.20;;;;;;5044595;28;19916;-53
2022/08/08 11:19:38;;;;;;;;;;;26.00;53.50;;;;;;5052824;28;19913;-51
2022/08/08 11:22:04;;;;;;;;;;;26.10;53.10;;;;;;5052888;28;19913;-56
2022/08/08 11:24:33;;;;;;;;;;;26.20;52.90;;;;;;5052926;28;20299;-49
2022/08/08 11:27:01;;;;;;;;;;;26.20;52.70;;;;;;5052758;28;20388;-52
2022/08/08 11:29:27;;;;;;;;;;;26.20;52.60;;;;;;5052490;28;19956;-55
2022/08/08 11:31:53;;;;;;;;;;;26.20;52.90;;;;;;5051833;28;19912;-51
2022/08/08 11:34:19;;;;;;;;;;;26.40;52.90;;;;;;5052832;28;19916;-55
2022/08/08 11:36:45;;;;;;;;;;;26.50;52.30;;;;;;5051335;28;19913;-55
2022/08/08 11:39:11;;;;;;;;;;;26.50;52.20;;;;;;5052320;28;19923;-48
2022/08/08 11:41:37;;;;;;;;;;;26.60;52.50;;;;;;5051251;28;20303;-52
2022/08/08 11:44:04;;;;;;;;;;;26.50;52.40;;;;;;5052089;28;19909;-52
2022/08/08 11:46:33;;;;;;;;;;;26.50;52.20;;;;;;5052793;28;19974;-53
2022/08/08 11:49:07;;;;;;;;;;;26.60;52.70;;;;;;5032528;28;19925;-54
2022/08/08 11:51:33;;;;;;;;;;;26.30;52.30;;;;;;5036755;28;19940;-53
2022/08/08 11:53:59;;;;;;;;;;;26.50;52.70;;;;;;5052007;28;19995;-54
2022/08/08 11:56:30;;;;;;;;;;;26.30;53.20;;;;;;5052346;28;19940;-51
2022/08/08 11:59:03;;;;;;;;;;;26.30;52.90;;;;;;5052242;28;19913;-53
2022/08/08 12:01:30;;;;;;;;;;;26.40;52.80;;;;;;5047807;28;19920;-57
2022/08/08 12:03:55;;;;;;;;;;;26.50;52.40;;;;;;5046908;28;19935;-53
2022/08/08 12:06:21;;;;;;;;;;;26.40;52.40;;;;;;5043139;28;20360;-58
2022/08/08 12:08:47;;;;;;;;;;;26.30;52.20;;;;;;5051212;28;20032;-55
2022/08/08 12:11:14;;;;;;;;;;;26.00;53.20;;;;;;5041515;28;19912;-57
2022/08/08 12:13:40;;;;;;;;;;;26.10;53.30;;;;;;5049647;28;19955;-56
2022/08/08 12:16:09;;;;;;;;;;;26.30;53.00;;;;;;5049634;28;20019;-55
2022/08/08 12:18:48;;;;;;;;;;;26.20;52.80;;;;;;5051030;28;20368;-54
2022/08/08 12:21:20;;;;;;;;;;;26.30;52.90;;;;;;5050651;28;19923;-54
2022/08/08 12:23:45;;;;;;;;;;;26.40;52.00;;;;;;5051390;28;20365;-52
2022/08/08 12:26:12;;;;;;;;;;;26.30;52.40;;;;;;5051611;28;19970;-55
2022/08/08 12:28:37;;;;;;;;;;;26.40;52.20;;;;;;5051491;28;19913;-55
2022/08/08 12:31:07;;;;;;;;;;;26.30;51.90;;;;;;5050171;28;19966;-55
2022/08/08 12:33:32;;;;;;;;;;;26.60;52.40;;;;;;5054880;28;19913;-58
2022/08/08 12:36:08;;;;;;;;;;;26.80;52.10;;;;;;5057863;28;19927;-56
2022/08/08 12:38:44;;;;;;;;;;;26.80;51.80;;;;;;5054008;28;19916;-53
2022/08/08 12:41:11;;;;;;;;;;;26.90;51.80;;;;;;5051131;28;20277;-48
2022/08/08 12:43:37;;;;;;;;;;;27.10;51.50;;;;;;5051054;28;20018;-58
2022/08/08 12:46:12;;;;;;;;;;;27.30;51.00;;;;;;5050965;28;19912;-58
2022/08/08 12:48:37;;;;;;;;;;;27.50;51.00;;;;;;5051440;28;19920;-50
2022/08/08 12:51:03;;;;;;;;;;;27.40;50.90;;;;;;5050888;28;19917;-56
2022/08/08 12:53:30;;;;;;;;;;;27.60;50.70;;;;;;5051375;28;19921;-56
2022/08/08 12:56:06;;;;;;;;;;;27.80;51.10;;;;;;5050851;28;20380;-57
2022/08/08 12:58:48;;;;;;;;;;;27.80;51.20;;;;;;5051447;28;19924;-54
2022/08/08 13:01:13;;;;;;;;;;;27.70;51.40;;;;;;5050234;28;19913;-54
2022/08/08 13:03:46;;;;;;;;;;;27.70;51.20;;;;;;5035244;28;19919;-53
2022/08/08 13:06:13;;;;;;;;;;;28.00;51.30;;;;;;5044282;28;19919;-55
2022/08/08 13:08:40;;;;;;;;;;;28.10;50.90;;;;;;5050994;28;20331;-51
2022/08/08 13:11:15;;;;;;;;;;;28.30;51.10;;;;;;5045185;28;19967;-54
2022/08/08 13:13:40;;;;;;;;;;;28.60;51.80;;;;;;5050915;28;19916;-53
2022/08/08 13:16:19;;;;;;;;;;;28.70;50.60;;;;;;5050519;28;20015;-51
2022/08/08 13:18:48;;;;;;;;;;;28.70;50.00;;;;;;5040796;28;19951;-49
2022/08/08 13:21:13;;;;;;;;;;;28.90;50.60;;;;;;5050716;28;20281;-56
2022/08/08 13:23:39;;;;;;;;;;;28.80;49.90;;;;;;5050758;28;19913;-53
2022/08/08 13:26:08;;;;;;;;;;;28.70;49.80;;;;;;5050639;28;19928;-53
2022/08/08 13:28:33;;;;;;;;;;;28.60;49.60;;;;;;5049047;28;19912;-54
2022/08/08 13:31:00;;;;;;;;;;;28.70;49.50;;;;;;5045462;28;20488;-53
2022/08/08 13:33:25;;;;;;;;;;;28.70;49.60;;;;;;5034470;28;19909;-54
2022/08/08 13:35:54;;;;;;;;;;;28.80;49.40;;;;;;5048482;28;19950;-53
2022/08/08 13:38:19;;;;;;;;;;;28.70;49.60;;;;;;5054800;28;19931;-50
2022/08/08 13:40:45;;;;;;;;;;;28.70;49.40;;;;;;5053667;28;19913;-49
2022/08/08 13:43:12;;;;;;;;;;;28.50;49.80;;;;;;5054365;28;20390;-54
2022/08/08 13:45:37;;;;;;;;;;;28.80;50.40;;;;;;5053346;28;19912;-52
2022/08/08 13:48:07;;;;;;;;;;;28.90;49.20;;;;;;5052823;28;19924;-53
2022/08/08 13:50:33;;;;;;;;;;;28.90;49.40;;;;;;5054307;28;19932;-54
2022/08/08 13:52:59;;;;;;;;;;;29.20;49.70;;;;;;5054008;28;19921;-54
2022/08/08 13:55:25;;;;;;;;;;;29.60;48.50;;;;;;5053831;28;19987;-56
2022/08/08 13:57:51;;;;;;;;;;;29.30;49.20;;;;;;5052983;28;20499;-54
2022/08/08 14:00:20;;;;;;;;;;;29.30;48.80;;;;;;5054332;28;19915;-53
2022/08/08 14:03:01;;;;;;;;;;;29.40;50.40;;;;;;5052944;28;19917;-51
2022/08/08 14:05:30;;;;;;;;;;;29.70;49.80;;;;;;5054057;28;19916;-52
2022/08/08 14:07:56;;;;;;;;;;;29.80;49.10;;;;;;5053530;28;20376;-52
2022/08/08 14:10:22;;;;;;;;;;;30.00;48.80;;;;;;5053818;28;19923;-55
2022/08/08 14:12:49;;;;;;;;;;;30.30;48.50;;;;;;5054783;28;19916;-52
2022/08/08 14:15:25;;;;;;;;;;;30.60;48.30;;;;;;5054933;28;19962;-51
2022/08/08 14:17:58;;;;;;;;;;;30.70;48.00;;;;;;5054939;28;20393;-55
2022/08/08 14:20:31;;;;;;;;;;;31.00;47.70;;;;;;5054802;28;20086;-55
2022/08/08 14:23:10;;;;;;;;;;;31.30;47.80;;;;;;5054651;28;19962;-56
2022/08/08 14:25:45;;;;;;;;;;;31.50;47.60;;;;;;5054150;28;19920;-55
2022/08/08 14:28:11;;;;;;;;;;;31.10;46.50;;;;;;5054254;28;19913;-55
2022/08/08 14:30:36;;;;;;;;;;;30.90;47.00;;;;;;5053574;28;19917;-54
2022/08/08 14:33:03;;;;;;;;;;;30.30;47.30;;;;;;5053461;28;19918;-55
2022/08/08 14:35:29;;;;;;;;;;;29.50;48.20;;;;;;5053312;28;20011;-54